Alamo, TX

4:53 AM CST on November 23, 2014 (GMT -0600)
McAllen NorthEast | Change Station
CLOSE
Current Station
Personal Weather Station
Location: McAllen, TX
Elevation: 115 ft
Nearby Weather Stations
Active Advisory: Dense Fog Advisory

Elev 115 ft 26.24 °N, 98.22 °W | Updated 0 second ago

Fog
Fog
63.8 °F
Feels Like 63.8 °F
N
0.0
Wind Variable Wind from SW
Gusts 0.0 mph

Today
High -- | Low -- °F
--% Chance of Precip.
Yesterday
High -- | Low -- °F
Precip. -- in
6:56 AM 5:40 PM
New Moon, 1% visible
Pressure 29.78 in
Visibility 0.2 miles
Clouds
Dew Point 62 °F
Humidity 93%
Rainfall 0.00 in
Snow Depth Not available.
UV Not available.
Pollen 3.00 out of 12
Air Quality Not available.
Flu Activity Not available.
METAR KMFE 230953Z AUTO 00000KT 1/4SM FG VV002 17/17 A2978 RMK AO2 SLP083 T01670167

More Conditions Fewer Conditions

Pressure 29.78 in
Visibility 0.2 miles
Clouds
Dew Point 62 °F
Humidity 93%
Rainfall 0.00 in
Snow Depth Not available.
UV Not available.
Pollen 3.00 out of 12
Air Quality Not available.
Flu Activity Not available.
METAR KMFE 230953Z AUTO 00000KT 1/4SM FG VV002 17/17 A2978 RMK AO2 SLP083 T01670167

More Conditions Fewer Conditions

Nowcast | as of 3:57 am CST on November 23, 2014

Through 7 am...areas of fog will continue to develop across the Rio Grande Valley and deep south Texas. Some of the fog may become dense with visibility falling below 1 mile. Motorists are urged to drive with caution when encountering areas of reduced visibility.

×

10-Day Weather Forecast

Almanac

Astronomy

Nov. 23, 2014 Rise Set
Actual Time
Civil Twilight
Nautical Twilight
Astronomical Twilight
Moon
Length of Visible Light
Length of Day
Tomorrow will be .
, % of the Moon is Illuminated

Today's Extremes

State Highs State Lows

Community

WunderPhotos

Upload Photos

1,773,033 photos uploaded!

WunderBlogs® & News

Nearby

Air Quality

  Air Quality AQ Index Pollutant
Not available.

Snow Depth

Station Depth Elevation

Earthquake Activity

City Distance Mag. Time & Date
Minimum magnitude displayed is 2.5.

Coastal Water Temperatures

Place Temperature

Nearby Weather Stations